Time;durP1;ratioP1;P1;durP2;ratioP2;P2;SDS_P1;SDS_P2;PMS_P1;PMS_P2;Temp;Humidity;BMP_temperature;BMP_pressure;BME280_temperature;BME280_humidity;BME280_pressure;Samples;Min_cycle;Max_cycle;Signal;HPM_P1;HPM_P2
2023/03/22 00:00:53;;;;;;;2.28;1.55;;;;;;;;;;5009722;28;20049;-76
2023/03/22 00:03:19;;;;;;;1.55;1.38;;;;;;;;;;5006688;28;20030;-77
2023/03/22 00:05:45;;;;;;;1.30;1.20;;;;;;;;;;5006770;28;20385;-77
2023/03/22 00:08:12;;;;;;;3.22;1.13;;;;;;;;;;5011184;28;20077;-76
2023/03/22 00:10:39;;;;;;;1.20;0.93;;;;;;;;;;5004155;28;20041;-76
2023/03/22 00:13:05;;;;;;;2.00;1.05;;;;;;;;;;5004849;28;20172;-76
2023/03/22 00:15:32;;;;;;;1.95;1.40;;;;;;;;;;5005641;28;20030;-77
2023/03/22 00:17:57;;;;;;;1.80;1.13;;;;;;;;;;5011386;28;20037;-76
2023/03/22 00:20:24;;;;;;;2.25;1.30;;;;;;;;;;5004547;28;20356;-76
2023/03/22 00:22:50;;;;;;;1.95;1.38;;;;;;;;;;4995954;28;20549;-76
2023/03/22 00:25:16;;;;;;;1.85;1.52;;;;;;;;;;5003004;28;20025;-76
2023/03/22 00:27:42;;;;;;;3.20;1.40;;;;;;;;;;5016689;28;20038;-77
2023/03/22 00:30:09;;;;;;;1.77;1.15;;;;;;;;;;5021806;28;20083;-76
2023/03/22 00:32:35;;;;;;;1.58;1.27;;;;;;;;;;5014468;28;20026;-76
2023/03/22 00:35:02;;;;;;;1.63;1.33;;;;;;;;;;5005014;28;20045;-77
2023/03/22 00:37:32;;;;;;;1.23;1.10;;;;;;;;;;4999544;28;20117;-76
2023/03/22 00:39:58;;;;;;;2.28;1.30;;;;;;;;;;5007569;28;20386;-77
2023/03/22 00:42:27;;;;;;;2.03;1.27;;;;;;;;;;5013151;28;20033;-77
2023/03/22 00:44:53;;;;;;;2.78;1.65;;;;;;;;;;5012773;28;20080;-77
2023/03/22 00:47:19;;;;;;;2.25;1.50;;;;;;;;;;5010098;28;20018;-76
2023/03/22 00:49:45;;;;;;;1.83;1.35;;;;;;;;;;5008081;28;20692;-76
2023/03/22 00:52:11;;;;;;;1.30;1.10;;;;;;;;;;5006440;28;20041;-76
2023/03/22 00:54:37;;;;;;;2.00;1.20;;;;;;;;;;5009462;28;20633;-77
2023/03/22 00:57:03;;;;;;;1.55;1.40;;;;;;;;;;5019165;28;20530;-76
2023/03/22 00:59:36;;;;;;;1.10;1.00;;;;;;;;;;5014097;28;20455;-76
2023/03/22 01:02:03;;;;;;;1.50;1.30;;;;;;;;;;5006946;28;20610;-76
2023/03/22 01:04:30;;;;;;;2.38;1.52;;;;;;;;;;5018956;28;20075;-76
2023/03/22 01:07:00;;;;;;;1.77;1.20;;;;;;;;;;5009336;28;20108;-77
2023/03/22 01:09:30;;;;;;;1.02;0.98;;;;;;;;;;5009246;28;20049;-76
2023/03/22 01:12:00;;;;;;;1.40;1.10;;;;;;;;;;5001698;28;20018;-76
2023/03/22 01:14:26;;;;;;;1.48;1.20;;;;;;;;;;5004307;28;20072;-76
2023/03/22 01:16:56;;;;;;;2.20;1.33;;;;;;;;;;5005369;28;20501;-76
2023/03/22 01:19:22;;;;;;;1.40;1.27;;;;;;;;;;5012354;28;20084;-76
2023/03/22 01:21:48;;;;;;;0.85;0.85;;;;;;;;;;5006374;28;20033;-76
2023/03/22 01:24:15;;;;;;;1.88;1.08;;;;;;;;;;5007218;28;20072;-76
2023/03/22 01:26:41;;;;;;;1.15;1.05;;;;;;;;;;5011097;28;20032;-76
2023/03/22 01:29:07;;;;;;;1.30;0.90;;;;;;;;;;5024010;28;20018;-76
2023/03/22 01:31:33;;;;;;;1.65;1.10;;;;;;;;;;5008334;28;20473;-76
2023/03/22 01:33:59;;;;;;;1.45;1.35;;;;;;;;;;5007517;28;20033;-76
2023/03/22 01:36:25;;;;;;;1.30;1.10;;;;;;;;;;5005945;28;20030;-77
2023/03/22 01:38:51;;;;;;;1.95;1.13;;;;;;;;;;5005874;28;20104;-76
2023/03/22 01:41:17;;;;;;;1.65;1.20;;;;;;;;;;5007809;28;20088;-77
2023/03/22 01:43:43;;;;;;;0.77;0.77;;;;;;;;;;5005830;28;20058;-76
2023/03/22 01:46:09;;;;;;;2.22;1.20;;;;;;;;;;5008662;28;20034;-77
2023/03/22 01:48:44;;;;;;;2.65;1.00;;;;;;;;;;5008873;28;20033;-77
2023/03/22 01:51:17;;;;;;;2.15;1.15;;;;;;;;;;5019759;28;20022;-76
2023/03/22 01:53:51;;;;;;;1.02;0.93;;;;;;;;;;5020891;28;20480;-77
2023/03/22 01:56:19;;;;;;;2.05;1.27;;;;;;;;;;5015299;28;20109;-77
2023/03/22 01:58:45;;;;;;;1.27;1.05;;;;;;;;;;5017844;28;20026;-77
2023/03/22 02:01:11;;;;;;;1.40;1.20;;;;;;;;;;5005747;28;20052;-76
2023/03/22 02:03:43;;;;;;;1.38;1.05;;;;;;;;;;5011590;28;20028;-77
2023/03/22 02:06:09;;;;;;;0.98;0.88;;;;;;;;;;5005609;28;20440;-76
2023/03/22 02:08:35;;;;;;;1.00;0.90;;;;;;;;;;5012005;28;20334;-76
2023/03/22 02:11:02;;;;;;;1.15;1.00;;;;;;;;;;5003446;28;20037;-76
2023/03/22 02:13:41;;;;;;;1.45;1.00;;;;;;;;;;5012125;28;20108;-77
2023/03/22 02:16:15;;;;;;;1.50;1.10;;;;;;;;;;5012663;28;20481;-76
2023/03/22 02:18:59;;;;;;;1.80;1.17;;;;;;;;;;5001954;28;20033;-76
2023/03/22 02:21:44;;;;;;;1.40;0.95;;;;;;;;;;5004363;28;20110;-77
2023/03/22 02:24:28;;;;;;;1.25;1.10;;;;;;;;;;5006912;28;20064;-76
2023/03/22 02:27:15;;;;;;;1.83;0.90;;;;;;;;;;5004344;28;20037;-76
2023/03/22 02:29:44;;;;;;;7.00;1.27;;;;;;;;;;5016970;28;20029;-76
2023/03/22 02:32:25;;;;;;;3.85;1.08;;;;;;;;;;5013894;28;20057;-77
2023/03/22 02:35:07;;;;;;;1.20;1.00;;;;;;;;;;5000341;28;20026;-76
2023/03/22 02:37:45;;;;;;;1.52;0.80;;;;;;;;;;5007343;28;20025;-76
2023/03/22 02:40:16;;;;;;;1.55;1.20;;;;;;;;;;5006321;28;20388;-76
2023/03/22 02:42:42;;;;;;;;;;;;;;;;;;5007351;28;20064;-77
2023/03/22 02:45:08;;;;;;;1.05;0.90;;;;;;;;;;5016762;28;19944;-76
2023/03/22 02:47:34;;;;;;;1.42;1.05;;;;;;;;;;5004898;28;20026;-76
2023/03/22 02:50:03;;;;;;;1.08;0.95;;;;;;;;;;5004997;28;20091;-76
2023/03/22 02:52:38;;;;;;;2.35;1.25;;;;;;;;;;4991246;28;20030;-77
2023/03/22 02:55:17;;;;;;;0.70;0.70;;;;;;;;;;5007301;28;20179;-77
2023/03/22 02:57:47;;;;;;;1.25;1.08;;;;;;;;;;5011516;28;20226;-77
2023/03/22 03:00:14;;;;;;;1.00;0.90;;;;;;;;;;5009540;28;20400;-76
2023/03/22 03:02:42;;;;;;;1.63;0.85;;;;;;;;;;4995007;28;20030;-76
2023/03/22 03:05:10;;;;;;;2.17;1.10;;;;;;;;;;5014664;28;20025;-75
2023/03/22 03:07:37;;;;;;;1.30;1.20;;;;;;;;;;5014346;28;20037;-76
2023/03/22 03:10:04;;;;;;;1.17;1.00;;;;;;;;;;5002683;28;20022;-76
2023/03/22 03:12:30;;;;;;;1.17;1.08;;;;;;;;;;5006943;28;20038;-76
2023/03/22 03:14:56;;;;;;;1.33;1.10;;;;;;;;;;5004627;28;20141;-77
2023/03/22 03:17:27;;;;;;;1.25;0.82;;;;;;;;;;5005507;28;20029;-76
2023/03/22 03:20:08;;;;;;;1.10;0.85;;;;;;;;;;5005438;28;20033;-76
2023/03/22 03:22:41;;;;;;;1.00;0.95;;;;;;;;;;5005682;28;20393;-76
2023/03/22 03:25:12;;;;;;;1.45;0.85;;;;;;;;;;5000708;28;20057;-76
2023/03/22 03:27:49;;;;;;;1.23;0.90;;;;;;;;;;5006619;28;20080;-76
2023/03/22 03:30:25;;;;;;;1.15;0.90;;;;;;;;;;5004245;28;20018;-76
2023/03/22 03:32:54;;;;;;;1.52;1.00;;;;;;;;;;5009380;28;20107;-77
2023/03/22 03:35:22;;;;;;;4.28;0.85;;;;;;;;;;5007225;28;20030;-76
2023/03/22 03:37:51;;;;;;;0.93;0.80;;;;;;;;;;5005301;28;20025;-76
2023/03/22 03:40:23;;;;;;;1.55;1.00;;;;;;;;;;5006300;28;20038;-76
2023/03/22 03:42:51;;;;;;;0.70;0.70;;;;;;;;;;4999435;28;20803;-76
2023/03/22 03:45:18;;;;;;;1.13;0.90;;;;;;;;;;5006681;28;20225;-77
2023/03/22 03:47:45;;;;;;;1.27;0.95;;;;;;;;;;5007265;28;20053;-76
2023/03/22 03:50:13;;;;;;;0.63;0.63;;;;;;;;;;5012621;28;20472;-76
2023/03/22 03:52:39;;;;;;;1.05;0.73;;;;;;;;;;5003756;28;20524;-76
2023/03/22 03:55:06;;;;;;;0.73;0.63;;;;;;;;;;5005381;28;20038;-76
2023/03/22 03:57:32;;;;;;;0.80;0.80;;;;;;;;;;4995085;28;20025;-76
2023/03/22 03:59:57;;;;;;;1.83;1.00;;;;;;;;;;5006521;28;20080;-77
2023/03/22 04:02:23;;;;;;;2.25;1.10;;;;;;;;;;5011040;28;20026;-76
2023/03/22 04:04:49;;;;;;;1.30;0.98;;;;;;;;;;5009358;28;20045;-76
2023/03/22 04:07:15;;;;;;;1.60;1.00;;;;;;;;;;5022019;28;20033;-76
2023/03/22 04:09:41;;;;;;;1.08;0.80;;;;;;;;;;5009528;28;20033;-77
2023/03/22 04:12:10;;;;;;;0.82;0.82;;;;;;;;;;5009963;28;20033;-76
2023/03/22 04:14:36;;;;;;;0.80;0.73;;;;;;;;;;5007619;28;20076;-76
2023/03/22 04:17:02;;;;;;;0.80;0.80;;;;;;;;;;5003700;28;20045;-76
2023/03/22 04:19:29;;;;;;;0.80;0.80;;;;;;;;;;5011842;28;20436;-76
2023/03/22 04:21:55;;;;;;;0.63;0.60;;;;;;;;;;5026785;28;20440;-76
2023/03/22 04:24:21;;;;;;;1.10;1.00;;;;;;;;;;5014001;28;20034;-76
2023/03/22 04:26:47;;;;;;;1.75;0.98;;;;;;;;;;5008458;28;20152;-76
2023/03/22 04:29:13;;;;;;;1.00;0.85;;;;;;;;;;5011253;28;20025;-76
2023/03/22 04:31:39;;;;;;;1.05;0.90;;;;;;;;;;5011249;28;20038;-76
2023/03/22 04:34:05;;;;;;;1.17;0.90;;;;;;;;;;5011490;28;20548;-76
2023/03/22 04:36:35;;;;;;;1.40;0.95;;;;;;;;;;5006904;28;20030;-76
2023/03/22 04:39:01;;;;;;;1.13;1.02;;;;;;;;;;5008102;28;20468;-76
2023/03/22 04:41:27;;;;;;;1.00;0.90;;;;;;;;;;5008171;28;20389;-76
2023/03/22 04:43:53;;;;;;;3.03;0.70;;;;;;;;;;5008281;28;20046;-76
2023/03/22 04:46:20;;;;;;;0.90;0.90;;;;;;;;;;5013426;28;20057;-76
2023/03/22 04:48:46;;;;;;;1.75;1.10;;;;;;;;;;5017622;28;20018;-76
2023/03/22 04:51:12;;;;;;;1.23;0.85;;;;;;;;;;5003780;28;20037;-76
2023/03/22 04:53:38;;;;;;;1.25;0.90;;;;;;;;;;5018828;28;20022;-76
2023/03/22 04:56:08;;;;;;;4.57;0.77;;;;;;;;;;5018112;28;20075;-76
2023/03/22 04:58:36;;;;;;;1.27;0.80;;;;;;;;;;5013189;28;20034;-77
2023/03/22 05:01:02;;;;;;;1.20;0.88;;;;;;;;;;5011296;28;20030;-77
2023/03/22 05:03:28;;;;;;;1.15;0.70;;;;;;;;;;5009408;28;20045;-76
2023/03/22 05:05:55;;;;;;;1.52;1.10;;;;;;;;;;5014289;28;20033;-77
2023/03/22 05:08:25;;;;;;;0.80;0.70;;;;;;;;;;5011372;28;20631;-77
2023/03/22 05:10:52;;;;;;;1.40;1.08;;;;;;;;;;5016842;28;20026;-77
2023/03/22 05:13:18;;;;;;;1.00;0.73;;;;;;;;;;5005269;28;20790;-77
2023/03/22 05:15:46;;;;;;;1.13;0.85;;;;;;;;;;5009102;28;20030;-77
2023/03/22 05:18:13;;;;;;;0.77;0.77;;;;;;;;;;5002908;28;20084;-77
2023/03/22 05:20:39;;;;;;;1.20;1.10;;;;;;;;;;5009922;28;20503;-77
2023/03/22 05:23:05;;;;;;;0.95;0.90;;;;;;;;;;5007522;28;20121;-76
2023/03/22 05:25:31;;;;;;;1.13;0.95;;;;;;;;;;5000924;28;20026;-76
2023/03/22 05:28:00;;;;;;;2.65;1.08;;;;;;;;;;5008318;28;20030;-77
2023/03/22 05:30:27;;;;;;;0.73;0.70;;;;;;;;;;5008388;28;20026;-76
2023/03/22 05:33:02;;;;;;;1.48;1.13;;;;;;;;;;5009369;28;20054;-77
2023/03/22 05:35:28;;;;;;;1.23;0.70;;;;;;;;;;5007457;28;20057;-76
2023/03/22 05:37:54;;;;;;;0.80;0.80;;;;;;;;;;4996204;28;20083;-77
2023/03/22 05:40:20;;;;;;;0.80;0.80;;;;;;;;;;5006186;28;20490;-77
2023/03/22 05:42:46;;;;;;;1.98;1.02;;;;;;;;;;5006950;28;20056;-77
2023/03/22 05:45:12;;;;;;;0.80;0.80;;;;;;;;;;5008150;28;20275;-77
2023/03/22 05:47:38;;;;;;;0.52;0.52;;;;;;;;;;5016444;28;20044;-76
2023/03/22 05:50:05;;;;;;;1.50;1.00;;;;;;;;;;5013225;28;20025;-76
2023/03/22 05:52:31;;;;;;;1.25;0.93;;;;;;;;;;5014674;28;20041;-76
2023/03/22 05:54:57;;;;;;;1.65;1.00;;;;;;;;;;5003651;28;20038;-77
2023/03/22 05:57:23;;;;;;;1.48;1.00;;;;;;;;;;5006799;28;20026;-76
2023/03/22 05:59:52;;;;;;;1.60;0.90;;;;;;;;;;5006370;28;20040;-76
2023/03/22 06:02:18;;;;;;;0.93;0.85;;;;;;;;;;5009090;28;20033;-81
2023/03/22 06:04:45;;;;;;;1.30;1.10;;;;;;;;;;5006691;28;20034;-76
2023/03/22 06:07:11;;;;;;;1.98;1.10;;;;;;;;;;5006817;28;20034;-76
2023/03/22 06:09:37;;;;;;;1.48;1.23;;;;;;;;;;5018667;28;20040;-76
2023/03/22 06:12:03;;;;;;;0.82;0.82;;;;;;;;;;5006644;28;20124;-76
2023/03/22 06:14:29;;;;;;;0.88;0.80;;;;;;;;;;5019115;28;20043;-77
2023/03/22 06:16:55;;;;;;;0.85;0.80;;;;;;;;;;5001337;28;20029;-77
2023/03/22 06:19:22;;;;;;;1.20;0.98;;;;;;;;;;5023235;28;20018;-75
2023/03/22 06:21:49;;;;;;;0.88;0.77;;;;;;;;;;5006488;28;20028;-83
2023/03/22 06:24:15;;;;;;;1.02;0.80;;;;;;;;;;5005150;28;20021;-76
2023/03/22 06:26:41;;;;;;;2.28;1.27;;;;;;;;;;5009616;28;20512;-76
2023/03/22 06:29:07;;;;;;;2.70;1.30;;;;;;;;;;5001606;28;20057;-76
2023/03/22 06:31:33;;;;;;;1.67;1.13;;;;;;;;;;4999308;28;20096;-75
2023/03/22 06:33:59;;;;;;;2.13;1.65;;;;;;;;;;5004930;28;20042;-76
2023/03/22 06:36:25;;;;;;;2.88;1.40;;;;;;;;;;5003922;28;20119;-76
2023/03/22 06:38:51;;;;;;;3.00;1.25;;;;;;;;;;5002002;28;20118;-76
2023/03/22 06:41:17;;;;;;;1.35;0.93;;;;;;;;;;5001521;28;20042;-76
2023/03/22 06:43:43;;;;;;;2.70;1.33;;;;;;;;;;5003120;28;20516;-76
2023/03/22 06:46:09;;;;;;;1.88;1.25;;;;;;;;;;5003567;28;20029;-76
2023/03/22 06:48:35;;;;;;;2.50;1.50;;;;;;;;;;5003305;28;20030;-76
2023/03/22 06:51:00;;;;;;;1.40;0.90;;;;;;;;;;5001409;28;20053;-76
2023/03/22 06:53:27;;;;;;;3.15;1.23;;;;;;;;;;5005134;28;20028;-76
2023/03/22 06:55:53;;;;;;;0.93;0.88;;;;;;;;;;5005406;28;20041;-76
2023/03/22 06:58:19;;;;;;;5.93;0.80;;;;;;;;;;5005421;28;20045;-76
2023/03/22 07:00:45;;;;;;;1.20;1.10;;;;;;;;;;5003680;28;20033;-76
2023/03/22 07:03:10;;;;;;;2.08;1.23;;;;;;;;;;5003933;28;20040;-77
2023/03/22 07:05:36;;;;;;;2.15;1.48;;;;;;;;;;5004306;28;20026;-77
2023/03/22 07:08:03;;;;;;;5.07;1.90;;;;;;;;;;5005702;28;20037;-77
2023/03/22 07:10:29;;;;;;;2.80;1.33;;;;;;;;;;5005073;28;20112;-76
2023/03/22 07:12:55;;;;;;;2.00;1.20;;;;;;;;;;4999996;28;20496;-75
2023/03/22 07:15:23;;;;;;;2.30;1.65;;;;;;;;;;4996445;28;20033;-80
2023/03/22 07:17:52;;;;;;;1.88;1.50;;;;;;;;;;5004365;28;20036;-77
2023/03/22 07:20:19;;;;;;;1.00;0.90;;;;;;;;;;5006459;28;20117;-78
2023/03/22 07:22:45;;;;;;;1.20;1.13;;;;;;;;;;5000329;28;20037;-79
2023/03/22 07:25:11;;;;;;;2.97;1.13;;;;;;;;;;5004453;28;20026;-80
2023/03/22 07:27:37;;;;;;;1.15;1.00;;;;;;;;;;5002980;28;20033;-79
2023/03/22 07:30:04;;;;;;;1.35;1.10;;;;;;;;;;5005402;28;20033;-76
2023/03/22 07:32:30;;;;;;;2.15;0.93;;;;;;;;;;5008135;28;20037;-78
2023/03/22 07:34:56;;;;;;;1.98;1.13;;;;;;;;;;5004594;28;20046;-79
2023/03/22 07:37:22;;;;;;;1.42;1.08;;;;;;;;;;5004934;28;20132;-80
2023/03/22 07:39:48;;;;;;;2.42;1.10;;;;;;;;;;5009751;28;20022;-80
2023/03/22 07:42:14;;;;;;;1.83;1.20;;;;;;;;;;5017974;28;20827;-80
2023/03/22 07:44:40;;;;;;;2.80;1.10;;;;;;;;;;5000483;28;20572;-81
2023/03/22 07:47:06;;;;;;;1.85;1.17;;;;;;;;;;4997949;28;21102;-78
2023/03/22 07:49:32;;;;;;;1.42;1.00;;;;;;;;;;4998593;28;20025;-79
2023/03/22 07:51:59;;;;;;;1.38;1.20;;;;;;;;;;5004866;28;20034;-83
2023/03/22 07:54:25;;;;;;;3.33;0.90;;;;;;;;;;5004489;28;20097;-83
2023/03/22 07:56:51;;;;;;;2.22;1.27;;;;;;;;;;5006211;28;20042;-82
2023/03/22 07:59:17;;;;;;;2.38;1.58;;;;;;;;;;5008367;28;20018;-81
2023/03/22 08:01:43;;;;;;;1.70;1.30;;;;;;;;;;5003769;28;21937;-78
2023/03/22 08:04:10;;;;;;;2.13;1.42;;;;;;;;;;5005441;28;20546;-76
2023/03/22 08:06:35;;;;;;;2.25;1.30;;;;;;;;;;5002523;28;20116;-80
2023/03/22 08:09:03;;;;;;;2.65;1.40;;;;;;;;;;5003177;28;20030;-75
2023/03/22 08:11:29;;;;;;;3.00;1.80;;;;;;;;;;5001022;28;20038;-80
2023/03/22 08:13:55;;;;;;;3.45;1.75;;;;;;;;;;5004285;28;20088;-76
2023/03/22 08:16:21;;;;;;;1.98;1.35;;;;;;;;;;5004392;28;20030;-75
2023/03/22 08:18:48;;;;;;;1.65;1.35;;;;;;;;;;5005493;28;20454;-76
2023/03/22 08:21:14;;;;;;;3.25;1.77;;;;;;;;;;5002788;28;20029;-74
2023/03/22 08:23:40;;;;;;;2.08;1.17;;;;;;;;;;5002234;28;20042;-76
2023/03/22 08:26:06;;;;;;;2.95;1.45;;;;;;;;;;5005339;28;20500;-77
2023/03/22 08:28:32;;;;;;;1.25;1.08;;;;;;;;;;5005081;28;20022;-75
2023/03/22 08:30:58;;;;;;;2.25;1.30;;;;;;;;;;5006861;28;20505;-76
2023/03/22 08:33:24;;;;;;;1.15;1.05;;;;;;;;;;5006605;28;20373;-78
2023/03/22 08:35:50;;;;;;;4.55;1.13;;;;;;;;;;5006011;28;20053;-77
2023/03/22 08:38:17;;;;;;;1.48;1.30;;;;;;;;;;5005485;28;20592;-79
2023/03/22 08:40:45;;;;;;;2.75;1.67;;;;;;;;;;5005571;28;20085;-76
2023/03/22 08:43:11;;;;;;;1.90;1.50;;;;;;;;;;5003592;28;20041;-79
2023/03/22 08:45:37;;;;;;;1.73;1.17;;;;;;;;;;4997069;28;20034;-79
2023/03/22 08:48:03;;;;;;;2.03;1.27;;;;;;;;;;5005537;28;20081;-79
2023/03/22 08:50:33;;;;;;;3.72;1.17;;;;;;;;;;5008977;28;20029;-77
2023/03/22 08:52:59;;;;;;;1.73;1.00;;;;;;;;;;5006571;28;20456;-78
2023/03/22 08:55:25;;;;;;;2.40;1.38;;;;;;;;;;5008201;28;20045;-79
2023/03/22 08:57:51;;;;;;;1.40;1.13;;;;;;;;;;5009400;28;20026;-79
2023/03/22 09:00:18;;;;;;;2.72;1.40;;;;;;;;;;5008956;28;20030;-78
2023/03/22 09:02:44;;;;;;;3.30;1.45;;;;;;;;;;5010473;28;20057;-77
2023/03/22 09:05:12;;;;;;;5.18;1.90;;;;;;;;;;5007274;28;20730;-76
2023/03/22 09:07:38;;;;;;;1.90;1.50;;;;;;;;;;5007333;28;20036;-76
2023/03/22 09:10:04;;;;;;;2.67;1.60;;;;;;;;;;5008374;28;20030;-76
2023/03/22 09:12:30;;;;;;;3.92;1.00;;;;;;;;;;5009765;28;20040;-76
2023/03/22 09:14:56;;;;;;;2.53;1.40;;;;;;;;;;5005981;28;22225;-76
2023/03/22 09:17:22;;;;;;;1.73;1.23;;;;;;;;;;5010232;28;20034;-76
2023/03/22 09:19:48;;;;;;;1.90;1.48;;;;;;;;;;5008104;28;20149;-77
2023/03/22 09:22:14;;;;;;;2.47;1.00;;;;;;;;;;5009219;28;20133;-73
2023/03/22 09:24:40;;;;;;;1.98;1.10;;;;;;;;;;5008747;28;20113;-75
2023/03/22 09:27:06;;;;;;;3.85;1.50;;;;;;;;;;5008062;28;20469;-76
2023/03/22 09:29:32;;;;;;;2.13;1.75;;;;;;;;;;5008958;28;20026;-73
2023/03/22 09:31:58;;;;;;;1.10;1.00;;;;;;;;;;5002190;28;20140;-74
2023/03/22 09:34:24;;;;;;;2.45;1.50;;;;;;;;;;5004725;28;20022;-74
2023/03/22 09:36:53;;;;;;;2.83;1.10;;;;;;;;;;5008231;28;20065;-74
2023/03/22 09:39:19;;;;;;;3.08;1.35;;;;;;;;;;5007358;28;20021;-74
2023/03/22 09:41:53;;;;;;;2.20;1.15;;;;;;;;;;5009543;28;20401;-75
2023/03/22 09:44:32;;;;;;;5.60;1.50;;;;;;;;;;5009144;28;20543;-75
2023/03/22 09:46:59;;;;;;;2.13;1.20;;;;;;;;;;5008544;28;20061;-74
2023/03/22 09:49:36;;;;;;;3.33;1.25;;;;;;;;;;5009633;28;20025;-74
2023/03/22 09:52:02;;;;;;;1.83;1.00;;;;;;;;;;5009417;28;20493;-75
2023/03/22 09:54:36;;;;;;;1.75;1.30;;;;;;;;;;5009663;28;20045;-74
2023/03/22 09:57:08;;;;;;;1.55;1.30;;;;;;;;;;5007149;28;20048;-74
2023/03/22 09:59:40;;;;;;;2.60;1.35;;;;;;;;;;5019671;28;20087;-74
2023/03/22 10:02:22;;;;;;;1.73;1.10;;;;;;;;;;5028945;28;20083;-75
2023/03/22 10:04:59;;;;;;;2.08;1.13;;;;;;;;;;5029300;28;20025;-74
2023/03/22 10:07:29;;;;;;;1.08;0.90;;;;;;;;;;5028971;28;20104;-75
2023/03/22 10:10:08;;;;;;;1.25;1.15;;;;;;;;;;5011037;28;20357;-74
2023/03/22 10:12:42;;;;;;;1.10;1.00;;;;;;;;;;5008820;28;20108;-75
2023/03/22 10:15:15;;;;;;;1.38;1.20;;;;;;;;;;5008973;28;20076;-74
2023/03/22 10:17:43;;;;;;;1.80;1.00;;;;;;;;;;5009119;28;20042;-74
2023/03/22 10:20:31;;;;;;;2.15;1.20;;;;;;;;;;5008022;28;20436;-74
2023/03/22 10:22:59;;;;;;;1.63;1.17;;;;;;;;;;5009016;28;20033;-75
2023/03/22 10:25:32;;;;;;;1.85;1.40;;;;;;;;;;5008614;28;20056;-75
2023/03/22 10:27:58;;;;;;;0.93;0.80;;;;;;;;;;5009045;28;20026;-75
2023/03/22 10:30:26;;;;;;;1.58;1.05;;;;;;;;;;5007161;28;20052;-75
2023/03/22 10:32:57;;;;;;;1.60;0.85;;;;;;;;;;5007450;28;20026;-74
2023/03/22 10:35:23;;;;;;;1.00;0.90;;;;;;;;;;5008370;28;20045;-74
2023/03/22 10:37:51;;;;;;;1.27;1.00;;;;;;;;;;5009000;28;20107;-75
2023/03/22 10:40:19;;;;;;;0.80;0.80;;;;;;;;;;5007555;28;20022;-74
2023/03/22 10:42:48;;;;;;;1.80;0.85;;;;;;;;;;5013356;28;20029;-75
2023/03/22 10:45:15;;;;;;;1.85;1.17;;;;;;;;;;5014780;28;20036;-74
2023/03/22 10:47:44;;;;;;;1.38;1.13;;;;;;;;;;5008242;28;20034;-75
2023/03/22 10:50:15;;;;;;;1.23;1.13;;;;;;;;;;5008580;28;20105;-74
2023/03/22 10:53:03;;;;;;;2.17;1.52;;;;;;;;;;5008045;28;20049;-75
2023/03/22 10:55:29;;;;;;;2.67;1.20;;;;;;;;;;5010606;28;20045;-75
2023/03/22 10:58:14;;;;;;;2.20;1.10;;;;;;;;;;5020831;28;20068;-74
2023/03/22 11:00:45;;;;;;;1.15;1.00;;;;;;;;;;5014145;28;20049;-74
2023/03/22 11:03:11;;;;;;;;;;;;;;;;;;5028603;28;20106;-74
2023/03/22 11:05:37;;;;;;;1.20;1.00;;;;;;;;;;5027983;28;19941;-74
2023/03/22 11:08:05;;;;;;;1.30;1.20;;;;;;;;;;5022955;28;20041;-75
2023/03/22 11:10:32;;;;;;;1.20;1.00;;;;;;;;;;5007485;28;20034;-75
2023/03/22 11:13:07;;;;;;;4.22;1.80;;;;;;;;;;5008336;28;20030;-74
2023/03/22 11:15:41;;;;;;;1.60;1.00;;;;;;;;;;5008306;28;20029;-74
2023/03/22 11:18:11;;;;;;;1.13;0.65;;;;;;;;;;5008089;28;20396;-75
2023/03/22 11:20:39;;;;;;;1.10;1.00;;;;;;;;;;5006955;28;20030;-75
2023/03/22 11:23:05;;;;;;;1.30;1.20;;;;;;;;;;5011940;28;20063;-75
2023/03/22 11:25:35;;;;;;;0.70;0.60;;;;;;;;;;5027950;28;20053;-75
2023/03/22 11:28:04;;;;;;;1.67;0.80;;;;;;;;;;5027673;28;20021;-74
2023/03/22 11:30:31;;;;;;;1.77;0.95;;;;;;;;;;5015684;28;20025;-75
2023/03/22 11:33:16;;;;;;;0.63;0.63;;;;;;;;;;5004705;28;20068;-74
2023/03/22 11:35:44;;;;;;;0.75;0.75;;;;;;;;;;5007465;28;20866;-75
2023/03/22 11:38:21;;;;;;;0.88;0.70;;;;;;;;;;5007919;28;20362;-74
2023/03/22 11:40:52;;;;;;;0.85;0.85;;;;;;;;;;5007683;28;20034;-75
2023/03/22 11:43:26;;;;;;;1.00;0.90;;;;;;;;;;5005422;28;20049;-74
2023/03/22 11:45:56;;;;;;;0.75;0.75;;;;;;;;;;5007666;28;20030;-74
2023/03/22 11:48:24;;;;;;;1.38;1.00;;;;;;;;;;5007573;28;20109;-74
2023/03/22 11:50:52;;;;;;;0.90;0.70;;;;;;;;;;5007275;28;20038;-74
2023/03/22 11:53:24;;;;;;;1.15;0.90;;;;;;;;;;5007589;28;20022;-75
2023/03/22 11:55:51;;;;;;;1.25;0.80;;;;;;;;;;5006654;28;20603;-74
2023/03/22 11:58:25;;;;;;;0.70;0.70;;;;;;;;;;5007535;28;20041;-74
2023/03/22 12:00:52;;;;;;;3.65;1.77;;;;;;;;;;5007000;28;20026;-75
2023/03/22 12:03:21;;;;;;;0.90;0.75;;;;;;;;;;5007461;28;20022;-75
2023/03/22 12:05:48;;;;;;;1.25;0.98;;;;;;;;;;5007802;28;20022;-74
2023/03/22 12:08:24;;;;;;;1.02;0.75;;;;;;;;;;5007814;28;20029;-75
2023/03/22 12:10:54;;;;;;;2.08;1.15;;;;;;;;;;5007634;28;20030;-74
2023/03/22 12:13:25;;;;;;;1.73;0.90;;;;;;;;;;5010090;28;20045;-75
2023/03/22 12:15:54;;;;;;;0.90;0.80;;;;;;;;;;5027728;28;20026;-75
2023/03/22 12:18:29;;;;;;;1.85;1.27;;;;;;;;;;5027201;28;20044;-74
2023/03/22 12:20:57;;;;;;;0.60;0.60;;;;;;;;;;5028016;28;20026;-74
2023/03/22 12:23:24;;;;;;;1.00;0.90;;;;;;;;;;5030995;28;20087;-75
2023/03/22 12:26:01;;;;;;;0.80;0.80;;;;;;;;;;5011525;28;20026;-74
2023/03/22 12:28:30;;;;;;;1.13;1.00;;;;;;;;;;5011094;28;20057;-74
2023/03/22 12:30:58;;;;;;;0.82;0.82;;;;;;;;;;5011183;28;20033;-74
2023/03/22 12:33:26;;;;;;;2.22;1.02;;;;;;;;;;5011076;28;20029;-74
2023/03/22 12:35:55;;;;;;;1.08;0.65;;;;;;;;;;5009879;28;20034;-74
2023/03/22 12:38:26;;;;;;;0.80;0.80;;;;;;;;;;5010721;28;20075;-74
2023/03/22 12:40:53;;;;;;;0.70;0.70;;;;;;;;;;5010992;28;20035;-74
2023/03/22 12:43:33;;;;;;;0.98;0.80;;;;;;;;;;5009826;28;20141;-74
2023/03/22 12:46:01;;;;;;;0.80;0.80;;;;;;;;;;5010203;28;20038;-75
2023/03/22 12:48:34;;;;;;;0.70;0.70;;;;;;;;;;5008880;28;20072;-75
2023/03/22 12:51:02;;;;;;;1.63;1.00;;;;;;;;;;5006649;28;20053;-74
2023/03/22 12:53:33;;;;;;;0.63;0.63;;;;;;;;;;5030329;28;20029;-74
2023/03/22 12:56:00;;;;;;;3.45;1.00;;;;;;;;;;5030804;28;20032;-74
2023/03/22 12:58:27;;;;;;;1.83;1.10;;;;;;;;;;5028255;28;20060;-75
2023/03/22 13:00:53;;;;;;;0.73;0.73;;;;;;;;;;5018262;28;20041;-75
2023/03/22 13:03:25;;;;;;;1.40;0.90;;;;;;;;;;5031012;28;20034;-75
2023/03/22 13:05:59;;;;;;;2.05;0.80;;;;;;;;;;5030536;28;20612;-75
2023/03/22 13:08:25;;;;;;;2.92;0.80;;;;;;;;;;5030062;28;20026;-75
2023/03/22 13:11:00;;;;;;;0.75;0.73;;;;;;;;;;5017721;28;20026;-75
2023/03/22 13:13:26;;;;;;;0.70;0.70;;;;;;;;;;5011485;28;20083;-74
2023/03/22 13:15:55;;;;;;;1.67;0.80;;;;;;;;;;5014195;28;20049;-75
2023/03/22 13:18:27;;;;;;;0.98;0.60;;;;;;;;;;5016906;28;20029;-74
2023/03/22 13:21:13;;;;;;;1.00;0.73;;;;;;;;;;5022108;28;20033;-74
2023/03/22 13:23:59;;;;;;;2.00;0.77;;;;;;;;;;5029532;28;20033;-75
2023/03/22 13:26:35;;;;;;;1.38;1.05;;;;;;;;;;5029777;28;20542;-75
2023/03/22 13:29:07;;;;;;;1.85;0.70;;;;;;;;;;5030332;28;20021;-74
2023/03/22 13:31:51;;;;;;;0.70;0.70;;;;;;;;;;5019355;28;20033;-74
2023/03/22 13:34:22;;;;;;;1.20;0.70;;;;;;;;;;5014688;28;20036;-74
2023/03/22 13:36:49;;;;;;;0.73;0.60;;;;;;;;;;5020166;28;20029;-74
2023/03/22 13:39:16;;;;;;;5.05;0.63;;;;;;;;;;5018387;28;20619;-74
2023/03/22 13:41:43;;;;;;;0.93;0.60;;;;;;;;;;5010037;28;20029;-74
2023/03/22 13:44:20;;;;;;;0.82;0.70;;;;;;;;;;5009544;28;20058;-74
2023/03/22 13:46:52;;;;;;;1.10;0.60;;;;;;;;;;5006637;28;20033;-74
2023/03/22 13:49:27;;;;;;;0.55;0.55;;;;;;;;;;5016044;28;20056;-74
2023/03/22 13:51:55;;;;;;;2.25;0.80;;;;;;;;;;5029812;28;20036;-74
2023/03/22 13:54:23;;;;;;;1.33;0.60;;;;;;;;;;5029023;28;20530;-74
2023/03/22 13:56:59;;;;;;;3.55;0.75;;;;;;;;;;5015907;28;20032;-74
2023/03/22 13:59:32;;;;;;;1.55;1.00;;;;;;;;;;5029267;28;20383;-75
2023/03/22 14:02:09;;;;;;;1.25;0.82;;;;;;;;;;5028911;28;20033;-74
2023/03/22 14:04:41;;;;;;;3.70;0.80;;;;;;;;;;5028943;28;20037;-74
2023/03/22 14:07:24;;;;;;;1.17;0.77;;;;;;;;;;5016510;28;20485;-74
2023/03/22 14:09:51;;;;;;;0.60;0.60;;;;;;;;;;5009621;28;20033;-74
2023/03/22 14:12:20;;;;;;;2.60;1.02;;;;;;;;;;5009273;28;20365;-75
2023/03/22 14:14:48;;;;;;;1.00;0.90;;;;;;;;;;5009235;28;20026;-74
2023/03/22 14:17:26;;;;;;;0.52;0.47;;;;;;;;;;5008426;28;20026;-74
2023/03/22 14:19:52;;;;;;;0.55;0.55;;;;;;;;;;5009091;28;20108;-74
2023/03/22 14:22:22;;;;;;;0.60;0.60;;;;;;;;;;5008997;28;20515;-74
2023/03/22 14:24:49;;;;;;;0.90;0.75;;;;;;;;;;5004902;28;20113;-74
2023/03/22 14:27:17;;;;;;;1.67;0.90;;;;;;;;;;5014715;28;20648;-74
2023/03/22 14:29:44;;;;;;;1.30;0.93;;;;;;;;;;5012424;28;20195;-74
2023/03/22 14:32:23;;;;;;;1.92;0.75;;;;;;;;;;5026303;28;20439;-74
2023/03/22 14:34:55;;;;;;;1.67;0.77;;;;;;;;;;5028908;28;20034;-74
2023/03/22 14:37:23;;;;;;;0.50;0.50;;;;;;;;;;5028596;28;20032;-74
2023/03/22 14:39:49;;;;;;;1.77;0.70;;;;;;;;;;5013014;28;20496;-74
2023/03/22 14:42:21;;;;;;;0.80;0.70;;;;;;;;;;5006567;28;20025;-74
2023/03/22 14:44:55;;;;;;;2.65;1.00;;;;;;;;;;5007707;28;20120;-74
2023/03/22 14:47:27;;;;;;;1.58;0.55;;;;;;;;;;5007199;28;20048;-74
2023/03/22 14:49:54;;;;;;;0.80;0.57;;;;;;;;;;5007819;28;20507;-74
2023/03/22 14:52:22;;;;;;;0.60;0.60;;;;;;;;;;5008693;28;20029;-74